createdAt,value
2022-08-22T00:02:19.825Z,100394.19
2022-08-22T00:03:04.030Z,100331.88
2022-08-22T00:04:56.816Z,100390.50
2022-08-22T00:07:37.025Z,100390.50
2022-08-22T00:10:12.088Z,100391.16
2022-08-22T00:13:01.845Z,100393.81
2022-08-22T00:15:43.071Z,100399.31
2022-08-22T00:18:17.191Z,100393.34
2022-08-22T00:20:50.169Z,100395.53
2022-08-22T00:23:24.008Z,100395.69
2022-08-22T00:25:58.966Z,100391.53
2022-08-22T00:28:35.567Z,100382.88
2022-08-22T00:31:15.529Z,100390.06
2022-08-22T00:33:49.119Z,100393.22
2022-08-22T00:36:25.502Z,100391.38
2022-08-22T00:39:00.006Z,100387.69
2022-08-22T00:42:10.471Z,100387.81
2022-08-22T00:45:14.783Z,100387.47
2022-08-22T00:47:57.857Z,100395.31
2022-08-22T00:50:44.298Z,100393.66
2022-08-22T00:53:37.649Z,100384.63
2022-08-22T00:56:50.882Z,100383.78
2022-08-22T00:59:39.023Z,100386.97
2022-08-22T01:02:21.896Z,100384.16
2022-08-22T01:05:17.955Z,100390.13
2022-08-22T01:08:03.995Z,100394.81
2022-08-22T01:10:50.986Z,100387.16
2022-08-22T01:13:35.002Z,100390.19
2022-08-22T01:16:21.171Z,100391.03
2022-08-22T01:19:23.146Z,100395.69
2022-08-22T01:22:24.771Z,100386.88
2022-08-22T01:25:33.809Z,100397.72
2022-08-22T01:28:27.311Z,100389.88
2022-08-22T01:31:46.815Z,100387.41
2022-08-22T01:34:57.860Z,100384.06
2022-08-22T01:37:48.818Z,100392.41
2022-08-22T01:40:53.975Z,100383.75
2022-08-22T01:43:59.994Z,100386.75
2022-08-22T01:46:35.952Z,100399.78
2022-08-22T01:49:13.757Z,100383.13
2022-08-22T01:51:47.693Z,100383.31
2022-08-22T01:54:30.994Z,100376.00
2022-08-22T01:57:03.148Z,100374.53
2022-08-22T01:59:42.318Z,100374.84
2022-08-22T02:02:38.529Z,100372.53
2022-08-22T02:05:20.501Z,100374.38
2022-08-22T02:07:58.598Z,100375.91
2022-08-22T02:10:48.157Z,100379.41
2022-08-22T02:13:34.466Z,100381.41
2022-08-22T02:16:12.241Z,100381.75
2022-08-22T02:18:57.944Z,100384.25
2022-08-22T02:21:40.579Z,100384.63
2022-08-22T02:24:24.871Z,100383.97
2022-08-22T02:27:06.097Z,100386.13
2022-08-22T02:29:41.529Z,100381.31
2022-08-22T02:32:19.980Z,100377.69
2022-08-22T02:34:59.542Z,100378.34
2022-08-22T02:37:35.812Z,100375.34
2022-08-22T02:40:11.224Z,100379.69
2022-08-22T02:42:44.955Z,100374.22
2022-08-22T02:45:38.917Z,100377.88
2022-08-22T02:48:15.817Z,100373.06
2022-08-22T02:50:52.691Z,100374.56
2022-08-22T02:53:29.568Z,100371.41
2022-08-22T02:56:03.174Z,100378.75
2022-08-22T02:58:43.495Z,100376.59
2022-08-22T03:01:34.403Z,100378.75
2022-08-22T03:04:23.522Z,100377.53
2022-08-22T03:07:09.097Z,100372.72
2022-08-22T03:09:41.154Z,100372.22
2022-08-22T03:12:22.310Z,100366.22
2022-08-22T03:14:59.384Z,100372.06
2022-08-22T03:17:32.588Z,100378.69
2022-08-22T03:20:07.147Z,100378.03
2022-08-22T03:22:45.766Z,100374.22
2022-08-22T03:25:26.977Z,100376.38
2022-08-22T03:28:00.514Z,100379.19
2022-08-22T03:30:38.667Z,100382.19
2022-08-22T03:33:19.676Z,100386.00
2022-08-22T03:36:04.974Z,100378.34
2022-08-22T03:38:47.788Z,100374.16
2022-08-22T03:41:39.252Z,100378.47
2022-08-22T03:44:54.066Z,100383.28
2022-08-22T03:47:51.759Z,100377.66
2022-08-22T03:50:55.108Z,100378.66
2022-08-22T03:53:37.820Z,100388.09
2022-08-22T03:56:40.773Z,100383.78
2022-08-22T03:59:42.529Z,100390.94
2022-08-22T04:02:42.845Z,100382.75
2022-08-22T04:05:34.633Z,100392.56
2022-08-22T04:08:31.776Z,100396.38
2022-08-22T04:11:41.296Z,100401.72
2022-08-22T04:14:26.324Z,100401.50
2022-08-22T04:17:13.005Z,100409.47
2022-08-22T04:20:06.316Z,100415.13
2022-08-22T04:22:53.728Z,100417.13
2022-08-22T04:25:25.561Z,100417.78
2022-08-22T04:27:59.534Z,100419.75
2022-08-22T04:30:34.383Z,100417.69
2022-08-22T04:33:09.729Z,100417.69
2022-08-22T04:35:44.032Z,100417.69
2022-08-22T04:38:17.897Z,100422.69
2022-08-22T04:40:51.532Z,100419.44
2022-08-22T04:43:25.592Z,100411.47
2022-08-22T04:45:58.881Z,100414.00
2022-08-22T04:48:33.575Z,100416.44
2022-08-22T04:51:11.333Z,100416.66
2022-08-22T04:54:03.398Z,100425.81
2022-08-22T04:56:39.949Z,100427.34
2022-08-22T04:59:12.216Z,100417.22
2022-08-22T05:01:44.360Z,100422.56
2022-08-22T05:04:17.482Z,100423.22
2022-08-22T05:06:51.615Z,100417.44
2022-08-22T05:09:25.691Z,100424.41
2022-08-22T05:11:58.055Z,100431.25
2022-08-22T05:14:34.745Z,100427.25
2022-08-22T05:17:04.365Z,100423.78
2022-08-22T05:19:35.793Z,100429.41
2022-08-22T05:22:07.805Z,100429.75
2022-08-22T05:24:40.523Z,100430.56
2022-08-22T05:27:12.478Z,100432.22
2022-08-22T05:29:43.580Z,100428.09
2022-08-22T05:32:18.669Z,100423.56
2022-08-22T05:34:48.949Z,100428.75
2022-08-22T05:37:27.087Z,100420.59
2022-08-22T05:39:59.267Z,100431.06
2022-08-22T05:42:31.653Z,100422.44
2022-08-22T05:45:03.064Z,100430.25
2022-08-22T05:47:37.667Z,100423.28
2022-08-22T05:50:09.864Z,100430.78
2022-08-22T05:52:54.845Z,100427.31
2022-08-22T05:55:28.081Z,100423.00
2022-08-22T05:58:13.847Z,100424.66
2022-08-22T06:00:48.348Z,100433.19
2022-08-22T06:03:25.253Z,100433.19
2022-08-22T06:05:57.459Z,100427.19
2022-08-22T06:08:36.207Z,100425.69
2022-08-22T06:11:09.218Z,100436.19
2022-08-22T06:13:41.397Z,100432.69
2022-08-22T06:16:16.899Z,100435.00
2022-08-22T06:18:46.385Z,100430.28
2022-08-22T06:21:21.377Z,100425.47
2022-08-22T06:23:56.660Z,100421.41
2022-08-22T06:26:26.658Z,100424.94
2022-08-22T06:28:59.064Z,100430.06
2022-08-22T06:31:31.876Z,100432.53
2022-08-22T06:34:04.381Z,100436.84
2022-08-22T06:36:35.838Z,100430.44
2022-08-22T06:39:15.723Z,100432.91
2022-08-22T06:41:50.886Z,100432.84
2022-08-22T06:44:23.133Z,100440.66
2022-08-22T06:46:54.702Z,100445.94
2022-08-22T06:49:24.635Z,100443.22
2022-08-22T06:51:54.770Z,100448.53
2022-08-22T06:54:32.496Z,100447.50
2022-08-22T06:57:07.655Z,100447.91
2022-08-22T06:59:39.349Z,100443.31
2022-08-22T07:02:17.476Z,100437.56
2022-08-22T07:04:49.710Z,100435.47
2022-08-22T07:07:20.769Z,100443.91
2022-08-22T07:09:55.424Z,100439.94
2022-08-22T07:12:29.711Z,100449.34
2022-08-22T07:15:12.130Z,100443.44
2022-08-22T07:17:50.589Z,100444.81
2022-08-22T07:20:25.521Z,100453.22
2022-08-22T07:22:58.193Z,100452.94
2022-08-22T07:25:29.013Z,100454.34
2022-08-22T07:28:16.320Z,100458.56
2022-08-22T07:30:56.410Z,100458.47
2022-08-22T07:33:42.409Z,100447.47
2022-08-22T07:36:23.233Z,100453.59
2022-08-22T07:39:11.223Z,100453.06
2022-08-22T07:41:52.624Z,100458.59
2022-08-22T07:44:25.412Z,100446.72
2022-08-22T07:47:00.311Z,100455.09
2022-08-22T07:49:31.651Z,100454.03
2022-08-22T07:52:03.812Z,100461.00
2022-08-22T07:54:38.657Z,100463.41
2022-08-22T07:57:13.993Z,100468.06
2022-08-22T07:59:48.364Z,100461.56
2022-08-22T08:02:19.604Z,100467.22
2022-08-22T08:04:50.293Z,100460.50
2022-08-22T08:07:22.270Z,100464.75
2022-08-22T08:09:54.286Z,100460.28
2022-08-22T08:12:31.812Z,100462.19
2022-08-22T08:15:01.082Z,100463.09
2022-08-22T08:17:35.396Z,100457.53
2022-08-22T08:20:09.829Z,100452.41
2022-08-22T08:22:39.463Z,100448.25
2022-08-22T08:25:09.275Z,100459.72
2022-08-22T08:27:57.490Z,100451.69
2022-08-22T08:30:37.598Z,100444.88
2022-08-22T08:33:24.236Z,100452.31
2022-08-22T08:36:02.592Z,100450.06
2022-08-22T08:38:36.855Z,100454.00
2022-08-22T08:41:41.431Z,100450.06
2022-08-22T08:44:27.094Z,100446.59
2022-08-22T08:47:17.113Z,100447.22
2022-08-22T08:50:17.446Z,100454.66
2022-08-22T08:53:03.430Z,100445.53
2022-08-22T08:55:44.902Z,100451.13
2022-08-22T08:58:34.147Z,100455.47
2022-08-22T09:01:29.627Z,100451.91
2022-08-22T09:04:31.825Z,100454.75
2022-08-22T09:07:32.986Z,100450.00
2022-08-22T09:10:29.540Z,100443.53
2022-08-22T09:13:14.641Z,100437.50
2022-08-22T09:16:04.969Z,100439.13
2022-08-22T09:18:57.854Z,100444.47
2022-08-22T09:22:00.019Z,100443.97
2022-08-22T09:25:16.127Z,100441.66
2022-08-22T09:27:52.818Z,100432.28
2022-08-22T09:30:28.764Z,100429.13
2022-08-22T09:33:00.876Z,100436.28
2022-08-22T09:35:44.710Z,100431.25
2022-08-22T09:38:27.562Z,100432.84
2022-08-22T09:41:06.963Z,100430.50
2022-08-22T09:43:44.211Z,100425.44
2022-08-22T09:46:22.363Z,100421.03
2022-08-22T09:49:05.496Z,100420.47
2022-08-22T09:51:42.807Z,100420.84
2022-08-22T09:54:18.713Z,100413.03
2022-08-22T09:56:57.531Z,100413.19
2022-08-22T09:59:49.349Z,100405.44
2022-08-22T10:02:29.639Z,100402.34
2022-08-22T10:05:08.443Z,100401.22
2022-08-22T10:08:07.212Z,100396.44
2022-08-22T10:11:01.943Z,100391.19
2022-08-22T10:13:57.248Z,100396.63
2022-08-22T10:16:34.151Z,100383.16
2022-08-22T10:19:16.577Z,100376.63
2022-08-22T10:22:06.312Z,100380.41
2022-08-22T10:24:46.272Z,100367.34
2022-08-22T10:27:20.380Z,100375.00
2022-08-22T10:30:04.726Z,100364.28
2022-08-22T10:32:39.850Z,100360.94
2022-08-22T10:35:20.958Z,100352.44
2022-08-22T10:37:57.638Z,100355.88
2022-08-22T10:40:33.176Z,100353.84
2022-08-22T10:43:12.299Z,100355.00
2022-08-22T10:45:44.710Z,100349.69
2022-08-22T10:48:35.566Z,100356.88
2022-08-22T10:51:12.716Z,100347.91
2022-08-22T10:53:55.913Z,100354.06
2022-08-22T10:56:30.461Z,100357.66
2022-08-22T10:59:09.566Z,100348.19
2022-08-22T11:01:48.238Z,100339.00
2022-08-22T11:04:30.470Z,100344.19
2022-08-22T11:07:15.249Z,100342.41
2022-08-22T11:09:44.741Z,100338.03
2022-08-22T11:12:23.421Z,100340.63
2022-08-22T11:15:10.572Z,100338.84
2022-08-22T11:18:21.779Z,100338.44
2022-08-22T11:21:00.191Z,100340.88
2022-08-22T11:23:41.936Z,100343.78
2022-08-22T11:26:46.659Z,100333.75
2022-08-22T11:29:27.764Z,100336.41
2022-08-22T11:32:07.785Z,100330.00
2022-08-22T11:34:47.880Z,100331.50
2022-08-22T11:37:43.390Z,100334.72
2022-08-22T11:40:25.751Z,100334.16
2022-08-22T11:43:03.177Z,100327.28
2022-08-22T11:45:40.802Z,100313.00
2022-08-22T11:48:17.695Z,100324.06
2022-08-22T11:50:51.339Z,100322.22
2022-08-22T11:53:27.535Z,100328.09
2022-08-22T11:56:10.429Z,100322.88
2022-08-22T11:58:51.132Z,100318.09
2022-08-22T12:01:35.401Z,100312.03
2022-08-22T12:04:12.951Z,100314.50
2022-08-22T12:07:01.861Z,100317.41
2022-08-22T12:09:47.809Z,100300.25
2022-08-22T12:12:27.669Z,100307.59
2022-08-22T12:15:02.175Z,100310.25
2022-08-22T12:18:04.405Z,100308.38
2022-08-22T12:20:54.380Z,100301.59
2022-08-22T12:23:49.195Z,100305.38
2022-08-22T12:26:27.998Z,100299.56
2022-08-22T12:29:15.470Z,100297.69
2022-08-22T12:32:20.630Z,100296.66
2022-08-22T12:35:16.886Z,100283.19
2022-08-22T12:37:56.586Z,100279.78
2022-08-22T12:40:38.226Z,100282.47
2022-08-22T12:43:32.370Z,100268.81
2022-08-22T12:46:20.656Z,100270.44
2022-08-22T12:49:07.667Z,100270.03
2022-08-22T12:51:58.097Z,100267.53
2022-08-22T12:54:59.326Z,100269.00
2022-08-22T12:57:42.952Z,100259.16
2022-08-22T13:00:26.757Z,100253.91
2022-08-22T13:02:56.862Z,100253.34
2022-08-22T13:05:30.601Z,100258.19
2022-08-22T13:08:07.702Z,100258.88
2022-08-22T13:10:47.881Z,100255.50
2022-08-22T13:13:36.446Z,100245.19
2022-08-22T13:16:11.689Z,100242.53
2022-08-22T13:18:46.584Z,100232.84
2022-08-22T13:21:31.440Z,100238.22
2022-08-22T13:24:10.832Z,100225.25
2022-08-22T13:26:49.369Z,100232.69
2022-08-22T13:29:27.112Z,100239.03
2022-08-22T13:32:00.236Z,100242.53
2022-08-22T13:34:47.785Z,100240.59
2022-08-22T13:37:24.459Z,100235.72
2022-08-22T13:40:01.773Z,100240.91
2022-08-22T13:42:33.528Z,100243.91
2022-08-22T13:45:05.713Z,100241.44
2022-08-22T13:47:39.321Z,100232.91
2022-08-22T13:50:13.949Z,100241.50
2022-08-22T13:52:49.401Z,100235.44
2022-08-22T13:55:36.537Z,100231.16
2022-08-22T13:58:11.404Z,100237.31
2022-08-22T14:01:18.745Z,100231.50
2022-08-22T14:03:50.992Z,100232.41
2022-08-22T14:06:37.666Z,100232.03
2022-08-22T14:09:17.585Z,100222.25
2022-08-22T14:12:12.061Z,100218.22
2022-08-22T14:14:46.495Z,100209.16
2022-08-22T14:17:22.196Z,100214.97
2022-08-22T14:19:59.505Z,100212.97
2022-08-22T14:22:35.347Z,100210.13
2022-08-22T14:25:10.404Z,100208.69
2022-08-22T14:27:58.007Z,100204.34
2022-08-22T14:30:29.574Z,100202.59
2022-08-22T14:33:05.083Z,100196.13
2022-08-22T14:35:38.205Z,100200.44
2022-08-22T14:38:30.282Z,100202.72
2022-08-22T14:41:03.306Z,100195.97
2022-08-22T14:43:50.703Z,100187.22
2022-08-22T14:46:26.557Z,100185.38
2022-08-22T14:49:14.481Z,100182.44
2022-08-22T14:51:50.883Z,100185.47
2022-08-22T14:54:22.655Z,100182.28
2022-08-22T14:56:59.348Z,100178.78
2022-08-22T14:59:38.979Z,100180.16
2022-08-22T15:02:11.351Z,100176.06
2022-08-22T15:04:42.042Z,100169.16
2022-08-22T15:07:11.741Z,100182.66
2022-08-22T15:09:44.304Z,100182.34
2022-08-22T15:12:24.898Z,100172.91
2022-08-22T15:14:57.121Z,100171.97
2022-08-22T15:17:44.201Z,100179.03
2022-08-22T15:20:35.386Z,100171.47
2022-08-22T15:23:10.392Z,100170.34
2022-08-22T15:25:41.742Z,100171.19
2022-08-22T15:28:20.741Z,100175.94
2022-08-22T15:31:03.800Z,100173.53
2022-08-22T15:33:37.821Z,100170.81
2022-08-22T15:36:15.664Z,100176.09
2022-08-22T15:38:49.987Z,100164.69
2022-08-22T15:41:38.324Z,100157.25
2022-08-22T15:44:14.977Z,100161.16
2022-08-22T15:47:31.505Z,100156.09
2022-08-22T15:50:06.017Z,100154.66
2022-08-22T15:53:05.006Z,100156.66
2022-08-22T15:55:35.428Z,100150.19
2022-08-22T15:58:09.907Z,100152.56
2022-08-22T16:00:47.487Z,100151.56
2022-08-22T16:03:32.091Z,100147.50
2022-08-22T16:06:04.272Z,100144.31
2022-08-22T16:08:49.800Z,100144.56
2022-08-22T16:11:32.976Z,100135.41
2022-08-22T16:14:24.083Z,100134.59
2022-08-22T16:17:02.274Z,100129.75
2022-08-22T16:19:33.867Z,100135.03
2022-08-22T16:22:13.433Z,100136.31
2022-08-22T16:25:11.704Z,100120.53
2022-08-22T16:27:55.487Z,100126.63
2022-08-22T16:30:39.566Z,100131.13
2022-08-22T16:33:14.845Z,100132.19
2022-08-22T16:36:25.990Z,100135.50
2022-08-22T16:38:57.921Z,100127.19
2022-08-22T16:41:35.461Z,100121.81
2022-08-22T16:44:15.897Z,100123.41
2022-08-22T16:46:47.829Z,100117.03
2022-08-22T16:49:27.534Z,100112.91
2022-08-22T16:52:29.027Z,100118.22
2022-08-22T16:55:06.626Z,100118.56
2022-08-22T16:57:59.326Z,100113.13
2022-08-22T17:00:41.314Z,100110.88
2022-08-22T17:03:18.135Z,100117.69
2022-08-22T17:05:57.242Z,100126.25
2022-08-22T17:08:55.385Z,100121.56
2022-08-22T17:11:34.210Z,100125.84
2022-08-22T17:14:17.484Z,100128.06
2022-08-22T17:16:57.172Z,100125.16
2022-08-22T17:19:39.229Z,100125.75
2022-08-22T17:22:18.638Z,100128.50
2022-08-22T17:24:55.137Z,100127.66
2022-08-22T17:27:34.957Z,100135.72
2022-08-22T17:30:09.192Z,100136.88
2022-08-22T17:32:59.089Z,100147.22
2022-08-22T17:35:45.029Z,100142.72
2022-08-22T17:38:25.560Z,100144.69
2022-08-22T17:41:02.482Z,100139.66
2022-08-22T17:43:56.106Z,100144.53
2022-08-22T17:46:42.506Z,100148.41
2022-08-22T17:49:20.820Z,100147.88
2022-08-22T17:51:55.963Z,100152.31
2022-08-22T17:54:32.735Z,100149.97
2022-08-22T17:57:06.353Z,100153.03
2022-08-22T17:59:57.688Z,100157.13
2022-08-22T18:02:33.245Z,100164.91
2022-08-22T18:05:07.135Z,100162.09
2022-08-22T18:07:53.875Z,100164.75
2022-08-22T18:10:31.481Z,100169.81
2022-08-22T18:13:07.438Z,100171.69
2022-08-22T18:15:46.020Z,100167.56
2022-08-22T18:18:24.859Z,100174.00
2022-08-22T18:21:02.469Z,100171.72
2022-08-22T18:23:40.143Z,100176.47
2022-08-22T18:26:21.533Z,100179.31
2022-08-22T18:28:55.877Z,100177.59
2022-08-22T18:31:47.368Z,100173.13
2022-08-22T18:34:28.825Z,100168.84
2022-08-22T18:37:03.409Z,100182.03
2022-08-22T18:39:40.782Z,100178.16
2022-08-22T18:42:19.100Z,100182.13
2022-08-22T18:44:47.086Z,100183.97
2022-08-22T18:47:20.226Z,100184.50
2022-08-22T18:49:54.153Z,100180.34
2022-08-22T18:52:43.067Z,100184.88
2022-08-22T18:55:50.634Z,100182.38
2022-08-22T18:58:42.331Z,100189.38
2022-08-22T19:01:44.338Z,100199.47
2022-08-22T19:04:30.402Z,100199.19
2022-08-22T19:07:17.311Z,100211.97
2022-08-22T19:10:20.558Z,100206.75
2022-08-22T19:13:07.968Z,100210.63
2022-08-22T19:15:50.600Z,100207.78
2022-08-22T19:18:37.207Z,100214.50
2022-08-22T19:21:35.850Z,100213.34
2022-08-22T19:24:08.898Z,100221.34
2022-08-22T19:26:41.153Z,100225.34
2022-08-22T19:29:44.551Z,100220.22
2022-08-22T19:32:33.603Z,100213.88
2022-08-22T19:35:20.154Z,100225.72
2022-08-22T19:37:57.675Z,100222.47
2022-08-22T19:41:04.358Z,100232.00
2022-08-22T19:43:36.748Z,100229.78
2022-08-22T19:46:08.122Z,100222.19
2022-08-22T19:48:45.444Z,100230.72
2022-08-22T19:51:24.677Z,100226.59
2022-08-22T19:54:16.507Z,100232.47
2022-08-22T19:57:06.825Z,100235.56
2022-08-22T19:59:50.746Z,100238.25
2022-08-22T20:02:31.817Z,100239.09
2022-08-22T20:05:25.341Z,100245.56
2022-08-22T20:08:15.289Z,100240.59
2022-08-22T20:10:58.563Z,100240.41
2022-08-22T20:13:29.184Z,100247.03
2022-08-22T20:16:16.059Z,100239.16
2022-08-22T20:19:16.558Z,100242.06
2022-08-22T20:21:50.377Z,100238.38
2022-08-22T20:24:25.984Z,100240.66
2022-08-22T20:27:13.478Z,100241.28
2022-08-22T20:29:49.064Z,100245.41
2022-08-22T20:32:21.121Z,100234.44
2022-08-22T20:34:54.417Z,100242.09
2022-08-22T20:37:40.419Z,100240.69
2022-08-22T20:40:53.272Z,100239.38
2022-08-22T20:43:28.423Z,100240.00
2022-08-22T20:46:08.197Z,100236.50
2022-08-22T20:48:44.062Z,100244.16
2022-08-22T20:51:16.528Z,100242.09
2022-08-22T20:53:52.816Z,100249.31
2022-08-22T20:56:34.693Z,100248.28
2022-08-22T20:59:16.758Z,100246.84
2022-08-22T21:01:46.494Z,100250.34
2022-08-22T21:04:18.768Z,100265.41
2022-08-22T21:06:46.758Z,100274.75
2022-08-22T21:09:36.210Z,100278.00
2022-08-22T21:12:09.195Z,100277.00
2022-08-22T21:14:45.864Z,100276.59
2022-08-22T21:17:20.177Z,100277.59
2022-08-22T21:19:50.480Z,100283.81
2022-08-22T21:22:25.491Z,100290.84
2022-08-22T21:24:56.546Z,100292.06
2022-08-22T21:27:29.762Z,100294.34
2022-08-22T21:30:01.120Z,100286.69
2022-08-22T21:32:34.974Z,100288.97
2022-08-22T21:35:04.812Z,100286.72
2022-08-22T21:37:39.682Z,100287.13
2022-08-22T21:40:16.909Z,100291.47
2022-08-22T21:42:59.399Z,100291.06
2022-08-22T21:45:32.449Z,100287.16
2022-08-22T21:48:00.752Z,100298.72
2022-08-22T21:50:38.082Z,100297.94
2022-08-22T21:53:12.059Z,100295.88
2022-08-22T21:55:44.242Z,100298.56
2022-08-22T21:58:36.613Z,100290.91
2022-08-22T22:01:28.609Z,100293.81
2022-08-22T22:03:57.681Z,100295.47
2022-08-22T22:06:26.542Z,100299.22
2022-08-22T22:08:55.133Z,100297.53
2022-08-22T22:11:23.457Z,100299.16
2022-08-22T22:13:51.494Z,100300.44
2022-08-22T22:16:25.679Z,100299.00
2022-08-22T22:18:55.075Z,100307.06
2022-08-22T22:21:25.377Z,100303.31
2022-08-22T22:23:53.613Z,100312.22
2022-08-22T22:26:26.962Z,100309.94
2022-08-22T22:28:54.963Z,100319.25
2022-08-22T22:31:22.870Z,100312.00
2022-08-22T22:33:53.187Z,100317.16
2022-08-22T22:36:26.473Z,100328.16
2022-08-22T22:38:55.085Z,100316.13
2022-08-22T22:41:25.384Z,100321.13
2022-08-22T22:43:53.878Z,100327.50
2022-08-22T22:46:22.131Z,100332.69
2022-08-22T22:48:50.516Z,100333.94
2022-08-22T22:51:18.486Z,100335.59
2022-08-22T22:53:48.091Z,100338.72
2022-08-22T22:56:21.258Z,100345.53
2022-08-22T22:58:59.222Z,100339.13
2022-08-22T23:02:00.455Z,100338.94
2022-08-22T23:04:29.079Z,100343.03
2022-08-22T23:07:00.217Z,100342.84
2022-08-22T23:09:38.781Z,100341.63
2022-08-22T23:12:13.759Z,100353.19
2022-08-22T23:14:42.489Z,100348.22
2022-08-22T23:17:10.695Z,100349.88
2022-08-22T23:19:39.170Z,100350.31
2022-08-22T23:22:08.069Z,100357.75
2022-08-22T23:24:39.833Z,100347.84
2022-08-22T23:27:09.316Z,100357.72
2022-08-22T23:29:38.432Z,100354.66
2022-08-22T23:32:06.793Z,100361.69
2022-08-22T23:34:37.226Z,100366.88
2022-08-22T23:37:07.750Z,100356.72
2022-08-22T23:39:38.133Z,100361.47
2022-08-22T23:42:07.866Z,100366.00
2022-08-22T23:44:38.322Z,100360.44
2022-08-22T23:47:08.263Z,100367.25
2022-08-22T23:49:37.440Z,100362.09
2022-08-22T23:52:09.239Z,100364.56
2022-08-22T23:54:38.658Z,100367.66
2022-08-22T23:57:11.811Z,100361.25
2022-08-22T23:59:48.422Z,100364.59
